Time;durP1;ratioP1;P1;durP2;ratioP2;P2;SDS_P1;SDS_P2;PMS_P1;PMS_P2;Temp;Humidity;BMP_temperature;BMP_pressure;BME280_temperature;BME280_humidity;BME280_pressure;Samples;Min_cycle;Max_cycle;Signal;HPM_P1;HPM_P2
2023/05/04 00:01:47;;;;;;;8.98;5.25;;;;;;;;;;4988247;28;20117;-78
2023/05/04 00:04:13;;;;;;;8.07;5.00;;;;;;;;;;4982156;28;20125;-78
2023/05/04 00:06:39;;;;;;;9.00;4.72;;;;;;;;;;4993319;28;20033;-78
2023/05/04 00:09:05;;;;;;;8.93;4.90;;;;;;;;;;4998933;28;20377;-78
2023/05/04 00:11:32;;;;;;;12.48;5.20;;;;;;;;;;4986907;28;20681;-78
2023/05/04 00:13:58;;;;;;;11.95;5.32;;;;;;;;;;4995335;28;20018;-78
2023/05/04 00:16:24;;;;;;;14.10;5.25;;;;;;;;;;4992460;28;20484;-78
2023/05/04 00:18:50;;;;;;;9.50;5.55;;;;;;;;;;4989955;28;20061;-78
2023/05/04 00:21:16;;;;;;;14.68;5.20;;;;;;;;;;4998409;28;20121;-77
2023/05/04 00:23:42;;;;;;;9.30;4.93;;;;;;;;;;4993813;28;20494;-77
2023/05/04 00:26:09;;;;;;;10.80;5.43;;;;;;;;;;4996498;28;20031;-77
2023/05/04 00:28:35;;;;;;;11.25;4.55;;;;;;;;;;4993674;28;20376;-79
2023/05/04 00:31:01;;;;;;;14.13;5.40;;;;;;;;;;4984208;28;20037;-77
2023/05/04 00:33:27;;;;;;;9.20;4.63;;;;;;;;;;4993190;28;21953;-78
2023/05/04 00:35:53;;;;;;;9.95;4.95;;;;;;;;;;4995960;28;20052;-77
2023/05/04 00:38:19;;;;;;;11.40;5.15;;;;;;;;;;4995510;28;20518;-78
2023/05/04 00:40:45;;;;;;;10.55;4.97;;;;;;;;;;4981556;28;20030;-78
2023/05/04 00:43:11;;;;;;;13.90;5.25;;;;;;;;;;4978255;28;20522;-78
2023/05/04 00:45:37;;;;;;;10.48;6.03;;;;;;;;;;4986053;28;20037;-78
2023/05/04 00:48:05;;;;;;;7.78;4.95;;;;;;;;;;4993434;28;20486;-78
2023/05/04 00:50:31;;;;;;;9.88;5.43;;;;;;;;;;4998472;28;20107;-78
2023/05/04 00:52:58;;;;;;;12.30;5.32;;;;;;;;;;4996676;28;20030;-78
2023/05/04 00:55:24;;;;;;;10.85;5.55;;;;;;;;;;4995804;28;20033;-78
2023/05/04 00:57:50;;;;;;;13.90;5.55;;;;;;;;;;4998399;28;20031;-78
2023/05/04 01:00:17;;;;;;;10.98;5.60;;;;;;;;;;4990659;28;20026;-77
2023/05/04 01:02:43;;;;;;;10.02;6.85;;;;;;;;;;4969868;28;20081;-77
2023/05/04 01:05:13;;;;;;;13.35;5.93;;;;;;;;;;4993972;28;20044;-77
2023/05/04 01:07:47;;;;;;;11.40;6.07;;;;;;;;;;4988960;28;20033;-78
2023/05/04 01:10:17;;;;;;;9.90;5.30;;;;;;;;;;4989699;28;20038;-78
2023/05/04 01:13:09;;;;;;;11.77;5.40;;;;;;;;;;4995786;28;20049;-77
2023/05/04 01:15:36;;;;;;;10.77;5.28;;;;;;;;;;4984237;28;20575;-77
2023/05/04 01:18:02;;;;;;;11.98;5.03;;;;;;;;;;4993143;28;20557;-78
2023/05/04 01:20:28;;;;;;;15.25;5.60;;;;;;;;;;4989408;28;20383;-77
2023/05/04 01:22:55;;;;;;;12.68;5.00;;;;;;;;;;4993570;28;20026;-77
2023/05/04 01:25:21;;;;;;;12.77;5.80;;;;;;;;;;4976472;28;20141;-77
2023/05/04 01:27:51;;;;;;;15.27;5.28;;;;;;;;;;4991664;28;20032;-77
2023/05/04 01:30:23;;;;;;;11.95;5.18;;;;;;;;;;4991363;28;20026;-77
2023/05/04 01:32:49;;;;;;;10.43;5.63;;;;;;;;;;4996597;28;20034;-77
2023/05/04 01:35:16;;;;;;;12.05;5.32;;;;;;;;;;4982641;28;20038;-78
2023/05/04 01:37:42;;;;;;;9.95;4.85;;;;;;;;;;4997271;28;20045;-77
2023/05/04 01:40:08;;;;;;;13.15;5.70;;;;;;;;;;4994800;28;20030;-78
2023/05/04 01:42:35;;;;;;;12.57;5.07;;;;;;;;;;4956773;28;20479;-77
2023/05/04 01:45:02;;;;;;;9.00;5.60;;;;;;;;;;4991750;28;20125;-78
2023/05/04 01:47:28;;;;;;;7.38;5.18;;;;;;;;;;4995067;28;20068;-78
2023/05/04 01:49:54;;;;;;;11.55;5.57;;;;;;;;;;4990651;28;20034;-78
2023/05/04 01:52:20;;;;;;;13.93;5.55;;;;;;;;;;4993849;28;20033;-78
2023/05/04 01:54:46;;;;;;;12.70;6.47;;;;;;;;;;4993025;28;20097;-78
2023/05/04 01:57:12;;;;;;;10.18;5.15;;;;;;;;;;4996945;28;20034;-78
2023/05/04 01:59:38;;;;;;;13.68;5.68;;;;;;;;;;4976153;28;20031;-78
2023/05/04 02:02:04;;;;;;;9.82;5.25;;;;;;;;;;4994225;28;20042;-77
2023/05/04 02:04:30;;;;;;;10.52;5.25;;;;;;;;;;4997470;28;20030;-77
2023/05/04 02:06:56;;;;;;;13.63;5.97;;;;;;;;;;4995713;28;20064;-79
2023/05/04 02:09:22;;;;;;;11.75;5.47;;;;;;;;;;4991781;28;20480;-77
2023/05/04 02:11:48;;;;;;;15.32;5.95;;;;;;;;;;4989435;28;20030;-78
2023/05/04 02:14:14;;;;;;;18.40;5.43;;;;;;;;;;4992691;28;20074;-77
2023/05/04 02:16:40;;;;;;;11.20;5.68;;;;;;;;;;4994108;28;20096;-77
2023/05/04 02:19:06;;;;;;;14.50;5.47;;;;;;;;;;4990955;28;20027;-77
2023/05/04 02:21:32;;;;;;;13.63;5.43;;;;;;;;;;4998053;28;20045;-77
2023/05/04 02:23:58;;;;;;;11.13;5.22;;;;;;;;;;4993968;28;20026;-77
2023/05/04 02:26:24;;;;;;;11.18;5.63;;;;;;;;;;4980471;28;20034;-77
2023/05/04 02:28:50;;;;;;;11.68;5.55;;;;;;;;;;4990768;28;20041;-77
2023/05/04 02:31:16;;;;;;;12.65;5.43;;;;;;;;;;4972946;28;20034;-76
2023/05/04 02:33:42;;;;;;;11.30;6.25;;;;;;;;;;4992570;28;20100;-77
2023/05/04 02:36:08;;;;;;;9.88;6.00;;;;;;;;;;4991911;28;20113;-77
2023/05/04 02:38:34;;;;;;;13.98;5.68;;;;;;;;;;4989738;28;20159;-77
2023/05/04 02:41:00;;;;;;;11.00;5.72;;;;;;;;;;4990653;28;20121;-78
2023/05/04 02:43:26;;;;;;;8.70;5.65;;;;;;;;;;4991646;28;20535;-77
2023/05/04 02:45:52;;;;;;;11.68;5.97;;;;;;;;;;4987115;28;20026;-77
2023/05/04 02:48:18;;;;;;;10.90;5.97;;;;;;;;;;4988908;28;20062;-77
2023/05/04 02:50:45;;;;;;;14.20;5.88;;;;;;;;;;4988983;28;20105;-77
2023/05/04 02:53:11;;;;;;;12.50;6.55;;;;;;;;;;4989994;28;20454;-77
2023/05/04 02:55:37;;;;;;;10.50;5.32;;;;;;;;;;4994274;28;20053;-77
2023/05/04 02:58:03;;;;;;;9.55;6.03;;;;;;;;;;4983969;28;20487;-77
2023/05/04 03:00:29;;;;;;;12.93;5.50;;;;;;;;;;4993183;28;20406;-77
2023/05/04 03:02:55;;;;;;;13.82;6.80;;;;;;;;;;4989198;28;20026;-77
2023/05/04 03:05:21;;;;;;;11.13;6.03;;;;;;;;;;4992951;28;20121;-77
2023/05/04 03:07:47;;;;;;;12.38;6.28;;;;;;;;;;4982036;28;20043;-77
2023/05/04 03:10:13;;;;;;;11.02;4.97;;;;;;;;;;4994090;28;20097;-78
2023/05/04 03:12:39;;;;;;;11.32;6.38;;;;;;;;;;4991701;28;20105;-77
2023/05/04 03:15:06;;;;;;;19.55;6.43;;;;;;;;;;4992426;28;20097;-77
2023/05/04 03:17:32;;;;;;;13.20;5.78;;;;;;;;;;4989043;28;20030;-78
2023/05/04 03:19:58;;;;;;;11.00;6.32;;;;;;;;;;4986285;28;20031;-79
2023/05/04 03:22:24;;;;;;;12.95;6.15;;;;;;;;;;4996063;28;20045;-79
2023/05/04 03:24:50;;;;;;;13.80;6.53;;;;;;;;;;4988437;28;20423;-79
2023/05/04 03:27:16;;;;;;;11.95;6.43;;;;;;;;;;4999989;28;20035;-79
2023/05/04 03:29:42;;;;;;;10.77;5.55;;;;;;;;;;4978629;28;20098;-79
2023/05/04 03:32:08;;;;;;;17.40;6.90;;;;;;;;;;4994337;28;20092;-79
2023/05/04 03:34:34;;;;;;;10.63;6.55;;;;;;;;;;4992120;28;20053;-79
2023/05/04 03:37:00;;;;;;;14.70;6.82;;;;;;;;;;5000978;28;20114;-79
2023/05/04 03:39:26;;;;;;;12.02;6.97;;;;;;;;;;4995922;28;20080;-79
2023/05/04 03:41:52;;;;;;;15.15;7.10;;;;;;;;;;4991064;28;20038;-79
2023/05/04 03:44:18;;;;;;;13.02;6.68;;;;;;;;;;4973641;28;20073;-79
2023/05/04 03:46:44;;;;;;;14.15;6.43;;;;;;;;;;4989994;28;20045;-79
2023/05/04 03:49:10;;;;;;;13.32;7.00;;;;;;;;;;4987223;28;20040;-79
2023/05/04 03:51:36;;;;;;;11.20;6.80;;;;;;;;;;4980073;28;20038;-82
2023/05/04 03:54:02;;;;;;;13.02;7.13;;;;;;;;;;5101461;23;20410;-84
2023/05/04 03:56:28;;;;;;;12.38;7.35;;;;;;;;;;5042152;22;20061;-82
2023/05/04 03:58:54;;;;;;;14.88;7.90;;;;;;;;;;5004804;28;20129;-83
2023/05/04 04:01:20;;;;;;;26.00;11.07;;;;;;;;;;5009648;28;20034;-83
2023/05/04 04:03:46;;;;;;;16.88;10.55;;;;;;;;;;5013434;28;20464;-83
2023/05/04 04:06:12;;;;;;;15.75;8.25;;;;;;;;;;5004524;28;20117;-86
2023/05/04 04:08:39;;;;;;;12.32;7.38;;;;;;;;;;4994614;28;20049;-80
2023/05/04 04:11:05;;;;;;;13.13;6.93;;;;;;;;;;5009714;28;20034;-83
2023/05/04 04:13:31;;;;;;;14.82;7.60;;;;;;;;;;5010438;28;20076;-87
2023/05/04 04:15:57;;;;;;;9.55;6.55;;;;;;;;;;5009830;28;20056;-86
2023/05/04 04:18:23;;;;;;;12.13;7.78;;;;;;;;;;5027055;23;20055;-79
2023/05/04 04:20:50;;;;;;;12.45;7.53;;;;;;;;;;4994667;28;20081;-82
2023/05/04 04:23:20;;;;;;;13.05;6.50;;;;;;;;;;4983053;28;20037;-83
2023/05/04 04:25:46;;;;;;;18.73;7.47;;;;;;;;;;4976838;28;20117;-84
2023/05/04 04:28:13;;;;;;;12.00;7.10;;;;;;;;;;4988623;28;20439;-81
2023/05/04 04:30:39;;;;;;;15.77;7.80;;;;;;;;;;4983670;28;20471;-83
2023/05/04 04:33:05;;;;;;;15.88;7.45;;;;;;;;;;4980587;28;20041;-82
2023/05/04 04:35:32;;;;;;;14.45;6.60;;;;;;;;;;4980341;28;20038;-82
2023/05/04 04:37:58;;;;;;;14.48;6.28;;;;;;;;;;4978973;28;20026;-82
2023/05/04 04:40:24;;;;;;;10.48;5.88;;;;;;;;;;4964973;28;20058;-85
2023/05/04 04:42:51;;;;;;;12.13;8.00;;;;;;;;;;4963477;28;20848;-81
2023/05/04 04:45:17;;;;;;;14.52;6.78;;;;;;;;;;4965684;28;20055;-80
2023/05/04 04:47:44;;;;;;;11.30;6.63;;;;;;;;;;4978476;28;20046;-85
2023/05/04 04:50:10;;;;;;;11.02;7.10;;;;;;;;;;4971621;28;20046;-82
2023/05/04 04:52:36;;;;;;;13.20;7.50;;;;;;;;;;4984019;28;20480;-84
2023/05/04 04:55:03;;;;;;;12.07;7.03;;;;;;;;;;4984203;28;20030;-84
2023/05/04 04:57:29;;;;;;;17.00;9.02;;;;;;;;;;4969350;28;20045;-82
2023/05/04 04:59:56;;;;;;;27.38;11.68;;;;;;;;;;4973557;28;20030;-82
2023/05/04 05:02:22;;;;;;;20.38;7.07;;;;;;;;;;4983694;28;20490;-81
2023/05/04 05:04:48;;;;;;;11.32;6.57;;;;;;;;;;4968107;28;20038;-80
2023/05/04 05:07:14;;;;;;;9.27;6.63;;;;;;;;;;4971720;28;20472;-81
2023/05/04 05:09:41;;;;;;;9.25;5.93;;;;;;;;;;4980063;28;20100;-82
2023/05/04 05:12:10;;;;;;;11.82;6.68;;;;;;;;;;4989022;28;20038;-80
2023/05/04 05:14:36;;;;;;;10.80;5.65;;;;;;;;;;4979214;28;20031;-80
2023/05/04 05:17:02;;;;;;;10.68;6.10;;;;;;;;;;4971764;28;20534;-79
2023/05/04 05:19:29;;;;;;;9.25;5.97;;;;;;;;;;4963696;28;20037;-77
2023/05/04 05:21:55;;;;;;;14.95;6.18;;;;;;;;;;4971300;28;20035;-81
2023/05/04 05:24:22;;;;;;;11.50;6.72;;;;;;;;;;4966720;28;20046;-80
2023/05/04 05:26:48;;;;;;;14.10;7.15;;;;;;;;;;4978682;28;20039;-80
2023/05/04 05:29:14;;;;;;;12.45;6.13;;;;;;;;;;4976777;28;20234;-81
2023/05/04 05:31:40;;;;;;;14.57;7.25;;;;;;;;;;4972841;28;20126;-79
2023/05/04 05:34:06;;;;;;;15.38;6.97;;;;;;;;;;4971622;28;20565;-78
2023/05/04 05:36:32;;;;;;;18.92;6.95;;;;;;;;;;4980502;28;20118;-79
2023/05/04 05:38:58;;;;;;;11.35;6.22;;;;;;;;;;4973870;28;20059;-78
2023/05/04 05:41:24;;;;;;;13.32;6.03;;;;;;;;;;4967948;28;20121;-80
2023/05/04 05:43:50;;;;;;;13.43;5.75;;;;;;;;;;4987182;28;20062;-77
2023/05/04 05:46:17;;;;;;;13.95;5.65;;;;;;;;;;4970951;28;20523;-80
2023/05/04 05:48:43;;;;;;;13.73;6.30;;;;;;;;;;4971954;28;20118;-79
2023/05/04 05:51:09;;;;;;;12.98;6.47;;;;;;;;;;4963962;28;20050;-75
2023/05/04 05:53:35;;;;;;;13.73;6.32;;;;;;;;;;4963721;28;20027;-75
2023/05/04 05:56:01;;;;;;;10.35;5.97;;;;;;;;;;4977201;28;20092;-78
2023/05/04 05:58:27;;;;;;;20.85;9.27;;;;;;;;;;4984083;28;20049;-77
2023/05/04 06:00:53;;;;;;;10.50;7.35;;;;;;;;;;4985836;28;20026;-79
2023/05/04 06:03:19;;;;;;;13.95;6.97;;;;;;;;;;4978768;28;20030;-78
2023/05/04 06:05:45;;;;;;;13.00;5.78;;;;;;;;;;4971828;28;20046;-79
2023/05/04 06:08:11;;;;;;;11.77;5.55;;;;;;;;;;4973492;28;20118;-77
2023/05/04 06:10:37;;;;;;;13.52;5.90;;;;;;;;;;4981919;28;20030;-79
2023/05/04 06:13:03;;;;;;;13.45;6.13;;;;;;;;;;4972981;28;20033;-77
2023/05/04 06:15:29;;;;;;;16.88;6.32;;;;;;;;;;4975319;28;20092;-77
2023/05/04 06:17:55;;;;;;;12.43;6.30;;;;;;;;;;4986623;28;20148;-77
2023/05/04 06:20:21;;;;;;;9.45;5.18;;;;;;;;;;4978688;28;20031;-77
2023/05/04 06:22:47;;;;;;;11.52;5.25;;;;;;;;;;4976966;28;20060;-77
2023/05/04 06:25:13;;;;;;;11.63;5.47;;;;;;;;;;4972294;28;20130;-77
2023/05/04 06:27:39;;;;;;;11.00;5.60;;;;;;;;;;4980993;28;20470;-77
2023/05/04 06:30:06;;;;;;;15.40;6.57;;;;;;;;;;4985796;28;20493;-78
2023/05/04 06:32:32;;;;;;;9.43;5.40;;;;;;;;;;4974300;28;20118;-78
2023/05/04 06:34:58;;;;;;;10.55;5.80;;;;;;;;;;4974988;28;20031;-78
2023/05/04 06:37:25;;;;;;;16.52;5.95;;;;;;;;;;4968467;28;20492;-78
2023/05/04 06:39:51;;;;;;;12.00;5.25;;;;;;;;;;4971559;28;20050;-77
2023/05/04 06:42:17;;;;;;;10.85;5.60;;;;;;;;;;4961013;28;20469;-77
2023/05/04 06:44:43;;;;;;;14.15;5.78;;;;;;;;;;4980691;28;20046;-78
2023/05/04 06:47:09;;;;;;;10.90;6.47;;;;;;;;;;4982338;28;20031;-79
2023/05/04 06:49:35;;;;;;;10.73;5.22;;;;;;;;;;4982886;28;20035;-78
2023/05/04 06:52:01;;;;;;;9.95;5.47;;;;;;;;;;4986419;28;20058;-78
2023/05/04 06:54:27;;;;;;;7.95;5.22;;;;;;;;;;4968116;28;20088;-78
2023/05/04 06:56:54;;;;;;;10.38;5.28;;;;;;;;;;4965147;28;20031;-78
2023/05/04 06:59:20;;;;;;;12.63;5.93;;;;;;;;;;4965486;28;20027;-79
2023/05/04 07:01:46;;;;;;;17.50;5.45;;;;;;;;;;4969865;28;20117;-78
2023/05/04 07:04:15;;;;;;;9.52;5.38;;;;;;;;;;4974734;28;20032;-79
2023/05/04 07:06:42;;;;;;;10.45;5.10;;;;;;;;;;4971127;28;20031;-78
2023/05/04 07:09:08;;;;;;;15.13;6.05;;;;;;;;;;4982319;28;20047;-79
2023/05/04 07:11:34;;;;;;;17.83;6.10;;;;;;;;;;4991399;28;20045;-77
2023/05/04 07:14:00;;;;;;;12.38;5.95;;;;;;;;;;4978237;28;20039;-76
2023/05/04 07:16:27;;;;;;;11.25;5.43;;;;;;;;;;4965961;28;20050;-76
2023/05/04 07:18:53;;;;;;;11.57;5.72;;;;;;;;;;4966459;28;20074;-76
2023/05/04 07:21:19;;;;;;;11.05;4.80;;;;;;;;;;4968388;28;20125;-76
2023/05/04 07:23:45;;;;;;;18.35;5.95;;;;;;;;;;4966292;28;20035;-77
2023/05/04 07:26:11;;;;;;;9.00;4.68;;;;;;;;;;4965121;28;20454;-76
2023/05/04 07:28:37;;;;;;;11.82;5.65;;;;;;;;;;4966234;28;20126;-76
2023/05/04 07:31:03;;;;;;;9.18;4.75;;;;;;;;;;4967221;28;20031;-77
2023/05/04 07:33:29;;;;;;;12.60;5.28;;;;;;;;;;4967551;28;20483;-77
2023/05/04 07:35:57;;;;;;;10.93;4.95;;;;;;;;;;4983546;28;20053;-78
2023/05/04 07:38:24;;;;;;;10.50;5.10;;;;;;;;;;4975362;28;20030;-77
2023/05/04 07:40:50;;;;;;;11.15;4.97;;;;;;;;;;4970799;28;20039;-78
2023/05/04 07:43:16;;;;;;;9.32;5.30;;;;;;;;;;4974360;28;20434;-77
2023/05/04 07:45:42;;;;;;;12.93;4.57;;;;;;;;;;4973392;28;20089;-78
2023/05/04 07:48:08;;;;;;;8.70;4.22;;;;;;;;;;4969566;28;20054;-78
2023/05/04 07:50:34;;;;;;;8.98;5.25;;;;;;;;;;4979788;28;20109;-78
2023/05/04 07:53:01;;;;;;;11.00;4.68;;;;;;;;;;4972595;28;20043;-78
2023/05/04 07:55:28;;;;;;;12.90;4.88;;;;;;;;;;4966653;28;20170;-78
2023/05/04 07:57:54;;;;;;;14.23;5.22;;;;;;;;;;4964957;28;20122;-78
2023/05/04 08:00:20;;;;;;;11.95;4.25;;;;;;;;;;4969533;28;20026;-78
2023/05/04 08:02:46;;;;;;;7.50;4.53;;;;;;;;;;4970080;28;20088;-78
2023/05/04 08:05:12;;;;;;;13.68;4.53;;;;;;;;;;4961110;28;20070;-78
2023/05/04 08:07:38;;;;;;;10.68;4.07;;;;;;;;;;4974532;28;20026;-78
2023/05/04 08:10:05;;;;;;;11.57;4.55;;;;;;;;;;4974432;28;20113;-79
2023/05/04 08:12:31;;;;;;;11.80;4.13;;;;;;;;;;4971382;28;20019;-78
2023/05/04 08:14:57;;;;;;;8.10;4.32;;;;;;;;;;4967494;28;20035;-78
2023/05/04 08:17:23;;;;;;;6.18;4.05;;;;;;;;;;4965716;28;20054;-78
2023/05/04 08:19:50;;;;;;;10.05;4.20;;;;;;;;;;4975095;28;20039;-78
2023/05/04 08:22:16;;;;;;;8.98;4.38;;;;;;;;;;4977119;28;20039;-78
2023/05/04 08:24:42;;;;;;;9.48;4.63;;;;;;;;;;4981077;28;20097;-78
2023/05/04 08:27:08;;;;;;;9.82;4.68;;;;;;;;;;4978421;28;20479;-80
2023/05/04 08:29:35;;;;;;;8.88;3.97;;;;;;;;;;4970172;28;20055;-80
2023/05/04 08:32:01;;;;;;;13.30;5.25;;;;;;;;;;4969515;28;20038;-78
2023/05/04 08:34:27;;;;;;;10.90;5.53;;;;;;;;;;4971748;28;20092;-78
2023/05/04 08:36:53;;;;;;;18.15;8.35;;;;;;;;;;4971708;28;20523;-78
2023/05/04 08:39:19;;;;;;;7.63;3.97;;;;;;;;;;4963527;28;20039;-75
2023/05/04 08:41:45;;;;;;;15.90;4.43;;;;;;;;;;4969703;28;20034;-84
2023/05/04 08:44:12;;;;;;;7.57;3.97;;;;;;;;;;4970599;28;20097;-79
2023/05/04 08:46:39;;;;;;;5.60;3.65;;;;;;;;;;4973649;28;20022;-76
2023/05/04 08:49:05;;;;;;;9.50;4.68;;;;;;;;;;4963720;28;20118;-77
2023/05/04 08:51:34;;;;;;;11.27;4.32;;;;;;;;;;4978097;28;20046;-78
2023/05/04 08:54:01;;;;;;;6.57;3.75;;;;;;;;;;4975878;28;20388;-77
2023/05/04 08:56:27;;;;;;;9.90;3.97;;;;;;;;;;4971523;28;20028;-77
2023/05/04 08:58:56;;;;;;;11.27;4.68;;;;;;;;;;4975360;28;20038;-75
2023/05/04 09:01:22;;;;;;;12.25;4.05;;;;;;;;;;4981075;28;20026;-75
2023/05/04 09:03:50;;;;;;;10.55;4.10;;;;;;;;;;4963497;28;20089;-77
2023/05/04 09:06:16;;;;;;;8.15;4.63;;;;;;;;;;4970510;28;21429;-77
2023/05/04 09:08:42;;;;;;;8.82;3.92;;;;;;;;;;4977586;28;20137;-78
2023/05/04 09:11:10;;;;;;;10.73;3.90;;;;;;;;;;4967473;28;20161;-82
2023/05/04 09:13:37;;;;;;;12.15;3.80;;;;;;;;;;4963098;28;20515;-81
2023/05/04 09:16:03;;;;;;;8.50;3.72;;;;;;;;;;4960674;28;20392;-82
2023/05/04 09:18:36;;;;;;;11.35;3.75;;;;;;;;;;4958948;28;20148;-80
2023/05/04 09:21:02;;;;;;;8.82;4.13;;;;;;;;;;4963244;28;20050;-78
2023/05/04 09:23:28;;;;;;;6.80;3.20;;;;;;;;;;4962093;28;20057;-78
2023/05/04 09:25:55;;;;;;;18.63;10.32;;;;;;;;;;4973801;28;20062;-81
2023/05/04 09:28:32;;;;;;;12.13;6.07;;;;;;;;;;4980503;28;20499;-80
2023/05/04 09:31:00;;;;;;;7.13;3.92;;;;;;;;;;4966119;28;20073;-80
2023/05/04 09:33:26;;;;;;;6.85;3.22;;;;;;;;;;4967598;28;20030;-83
2023/05/04 09:35:52;;;;;;;9.57;4.13;;;;;;;;;;4967851;28;20040;-81
2023/05/04 09:38:28;;;;;;;10.82;3.72;;;;;;;;;;4966998;28;20479;-81
2023/05/04 09:40:54;;;;;;;9.20;3.22;;;;;;;;;;4968742;28;20063;-82
2023/05/04 09:43:20;;;;;;;8.88;3.53;;;;;;;;;;4970974;28;20094;-77
2023/05/04 09:45:46;;;;;;;24.60;16.13;;;;;;;;;;4965840;28;20101;-76
2023/05/04 09:48:19;;;;;;;13.88;7.15;;;;;;;;;;4964686;28;20065;-76
2023/05/04 09:50:48;;;;;;;8.13;3.03;;;;;;;;;;4966678;28;20550;-77
2023/05/04 09:53:15;;;;;;;8.13;3.45;;;;;;;;;;4962209;28;20439;-76
2023/05/04 09:55:45;;;;;;;6.65;3.47;;;;;;;;;;4961469;28;20102;-76
2023/05/04 09:58:13;;;;;;;9.90;3.70;;;;;;;;;;4964017;28;20387;-76
2023/05/04 10:00:39;;;;;;;6.07;3.00;;;;;;;;;;4962106;28;20038;-76
2023/05/04 10:03:05;;;;;;;6.70;3.40;;;;;;;;;;4962302;28;20047;-76
2023/05/04 10:05:32;;;;;;;8.10;2.92;;;;;;;;;;4963883;28;20039;-76
2023/05/04 10:08:01;;;;;;;16.10;7.82;;;;;;;;;;4959510;28;20066;-76
2023/05/04 10:10:27;;;;;;;9.82;3.50;;;;;;;;;;4964270;28;20043;-76
2023/05/04 10:12:53;;;;;;;9.65;2.92;;;;;;;;;;4961102;28;20085;-75
2023/05/04 10:15:20;;;;;;;6.95;3.08;;;;;;;;;;4962465;28;20041;-76
2023/05/04 10:18:02;;;;;;;6.20;3.42;;;;;;;;;;4962580;28;20066;-76
2023/05/04 10:20:28;;;;;;;8.90;3.55;;;;;;;;;;4961692;28;20059;-73
2023/05/04 10:22:54;;;;;;;8.80;3.20;;;;;;;;;;4958478;28;20332;-79
2023/05/04 10:25:53;;;;;;;6.15;3.28;;;;;;;;;;4965907;28;20035;-78
2023/05/04 10:28:22;;;;;;;8.75;3.13;;;;;;;;;;4928677;28;20125;-79
2023/05/04 10:30:48;;;;;;;5.88;2.92;;;;;;;;;;4967460;28;20364;-81
2023/05/04 10:33:15;;;;;;;10.63;2.90;;;;;;;;;;4978586;28;20096;-79
2023/05/04 10:35:51;;;;;;;7.35;2.88;;;;;;;;;;4961361;28;20479;-79
2023/05/04 10:38:17;;;;;;;6.07;2.63;;;;;;;;;;4968034;28;20061;-78
2023/05/04 10:40:47;;;;;;;10.25;2.90;;;;;;;;;;4964368;28;20492;-78
2023/05/04 10:43:21;;;;;;;6.72;2.70;;;;;;;;;;4964942;28;20081;-78
2023/05/04 10:45:48;;;;;;;9.45;5.07;;;;;;;;;;4965374;28;20489;-78
2023/05/04 10:48:14;;;;;;;8.38;4.00;;;;;;;;;;4964633;28;20034;-81
2023/05/04 10:50:46;;;;;;;8.75;3.10;;;;;;;;;;4965026;28;20054;-78
2023/05/04 10:53:12;;;;;;;8.73;2.55;;;;;;;;;;4967655;28;20058;-78
2023/05/04 10:55:40;;;;;;;10.32;3.10;;;;;;;;;;4966702;28;20038;-78
2023/05/04 10:58:06;;;;;;;9.73;3.00;;;;;;;;;;4966744;28;20038;-79
2023/05/04 11:00:36;;;;;;;6.63;2.90;;;;;;;;;;4967797;28;20043;-79
2023/05/04 11:03:03;;;;;;;8.18;2.97;;;;;;;;;;4974444;28;20126;-80
2023/05/04 11:05:39;;;;;;;8.70;3.00;;;;;;;;;;4975577;28;20034;-79
2023/05/04 11:08:18;;;;;;;6.35;2.58;;;;;;;;;;4978652;28;20035;-80
2023/05/04 11:10:45;;;;;;;6.55;2.83;;;;;;;;;;4991341;28;20361;-80
2023/05/04 11:13:11;;;;;;;9.68;3.28;;;;;;;;;;4985333;28;20454;-79
2023/05/04 11:15:43;;;;;;;11.02;2.58;;;;;;;;;;4989994;28;20030;-79
2023/05/04 11:18:10;;;;;;;6.93;2.88;;;;;;;;;;4964945;28;20122;-79
2023/05/04 11:20:36;;;;;;;6.97;2.97;;;;;;;;;;4971760;28;20023;-80
2023/05/04 11:23:03;;;;;;;10.70;2.70;;;;;;;;;;4965865;28;20082;-80
2023/05/04 11:25:30;;;;;;;7.15;3.17;;;;;;;;;;4983076;28;20041;-78
2023/05/04 11:27:57;;;;;;;6.38;2.85;;;;;;;;;;4981587;28;20125;-79
2023/05/04 11:30:36;;;;;;;6.88;2.47;;;;;;;;;;4988146;28;20034;-80
2023/05/04 11:33:03;;;;;;;7.05;2.70;;;;;;;;;;4985069;28;20095;-80
2023/05/04 11:35:30;;;;;;;9.38;2.90;;;;;;;;;;4984038;28;20027;-79
2023/05/04 11:37:56;;;;;;;5.57;3.13;;;;;;;;;;4979271;28;20158;-79
2023/05/04 11:40:23;;;;;;;7.47;3.13;;;;;;;;;;4979560;28;20122;-79
2023/05/04 11:42:49;;;;;;;5.75;2.72;;;;;;;;;;4988829;28;20467;-79
2023/05/04 11:45:18;;;;;;;6.57;3.10;;;;;;;;;;4979804;28;20185;-79
2023/05/04 11:47:44;;;;;;;7.18;2.83;;;;;;;;;;4989101;28;20464;-79
2023/05/04 11:50:11;;;;;;;9.45;3.42;;;;;;;;;;4971917;28;20070;-79
2023/05/04 11:52:39;;;;;;;5.65;2.63;;;;;;;;;;4989936;28;20065;-79
2023/05/04 11:55:09;;;;;;;7.15;3.33;;;;;;;;;;4967879;28;20027;-80
2023/05/04 11:57:36;;;;;;;6.80;2.78;;;;;;;;;;4984138;28;20034;-81
2023/05/04 12:00:11;;;;;;;9.85;2.75;;;;;;;;;;4984647;28;20375;-80
2023/05/04 12:02:38;;;;;;;5.88;2.83;;;;;;;;;;4968755;28;20106;-81
2023/05/04 12:05:04;;;;;;;9.10;2.85;;;;;;;;;;4967875;28;20398;-81
2023/05/04 12:07:30;;;;;;;6.35;3.08;;;;;;;;;;4977579;28;20050;-80
2023/05/04 12:09:56;;;;;;;6.03;2.92;;;;;;;;;;4980310;28;20480;-79
2023/05/04 12:12:22;;;;;;;4.10;2.45;;;;;;;;;;4979011;28;20046;-79
2023/05/04 12:14:49;;;;;;;8.68;2.13;;;;;;;;;;4983708;28;20073;-79
2023/05/04 12:17:15;;;;;;;7.13;3.33;;;;;;;;;;4988319;28;20109;-80
2023/05/04 12:19:47;;;;;;;8.48;2.80;;;;;;;;;;4966968;28;20111;-80
2023/05/04 12:22:13;;;;;;;10.82;3.25;;;;;;;;;;4980433;28;20143;-80
2023/05/04 12:24:40;;;;;;;4.55;2.92;;;;;;;;;;4963131;28;20120;-79
2023/05/04 12:27:12;;;;;;;7.28;2.78;;;;;;;;;;4958051;28;20042;-80
2023/05/04 12:29:38;;;;;;;7.40;2.75;;;;;;;;;;4967840;28;21257;-80
2023/05/04 12:32:04;;;;;;;5.72;2.60;;;;;;;;;;4989893;28;20035;-80
2023/05/04 12:34:30;;;;;;;8.25;3.35;;;;;;;;;;4974954;28;20045;-81
2023/05/04 12:36:56;;;;;;;5.95;3.03;;;;;;;;;;4990498;28;20041;-80
2023/05/04 12:39:22;;;;;;;4.80;3.20;;;;;;;;;;4982393;28;20045;-79
2023/05/04 12:41:48;;;;;;;8.63;3.72;;;;;;;;;;4981498;28;20026;-80
2023/05/04 12:44:15;;;;;;;6.13;2.78;;;;;;;;;;4983036;28;20042;-80
2023/05/04 12:46:42;;;;;;;7.20;2.95;;;;;;;;;;4983968;28;20497;-80
2023/05/04 12:49:09;;;;;;;11.70;2.80;;;;;;;;;;4971648;28;20784;-79
2023/05/04 12:51:36;;;;;;;6.38;3.05;;;;;;;;;;4988173;28;20038;-80
2023/05/04 12:54:02;;;;;;;6.90;3.08;;;;;;;;;;4989508;28;20099;-80
2023/05/04 12:56:28;;;;;;;5.38;2.80;;;;;;;;;;4988223;28;20051;-80
2023/05/04 12:58:54;;;;;;;8.25;3.67;;;;;;;;;;4972465;28;20121;-79
2023/05/04 13:01:20;;;;;;;7.63;2.67;;;;;;;;;;4982104;28;20169;-80
2023/05/04 13:03:46;;;;;;;7.03;3.05;;;;;;;;;;4976448;28;20018;-80
2023/05/04 13:06:12;;;;;;;6.00;2.00;;;;;;;;;;4987081;28;20034;-78
2023/05/04 13:08:38;;;;;;;11.52;2.88;;;;;;;;;;4976864;28;20038;-78
2023/05/04 13:11:04;;;;;;;6.03;2.97;;;;;;;;;;4975429;28;20455;-78
2023/05/04 13:13:30;;;;;;;8.98;3.00;;;;;;;;;;4986399;28;20037;-78
2023/05/04 13:15:56;;;;;;;4.30;2.80;;;;;;;;;;4983397;28;20046;-78
2023/05/04 13:18:25;;;;;;;6.68;3.30;;;;;;;;;;4983939;28;20082;-78
2023/05/04 13:20:52;;;;;;;6.03;3.40;;;;;;;;;;4970899;28;20559;-78
2023/05/04 13:23:20;;;;;;;8.13;2.80;;;;;;;;;;4972716;28;20038;-77
2023/05/04 13:25:46;;;;;;;9.90;3.05;;;;;;;;;;4986033;28;20545;-77
2023/05/04 13:28:12;;;;;;;6.30;2.70;;;;;;;;;;4981139;28;20093;-78
2023/05/04 13:30:38;;;;;;;8.57;2.72;;;;;;;;;;4980667;28;20030;-78
2023/05/04 13:33:04;;;;;;;4.35;2.47;;;;;;;;;;4985770;28;20527;-78
2023/05/04 13:35:30;;;;;;;5.07;2.78;;;;;;;;;;4969730;28;20138;-78
2023/05/04 13:37:56;;;;;;;8.77;2.85;;;;;;;;;;4971988;28;20126;-78
2023/05/04 13:40:22;;;;;;;6.40;2.70;;;;;;;;;;4985099;28;20107;-78
2023/05/04 13:42:48;;;;;;;10.88;3.15;;;;;;;;;;4986487;28;20467;-77
2023/05/04 13:45:14;;;;;;;6.05;2.80;;;;;;;;;;4984208;28;20113;-77
2023/05/04 13:47:40;;;;;;;8.35;2.95;;;;;;;;;;4979009;28;20186;-77
2023/05/04 13:50:07;;;;;;;5.93;2.17;;;;;;;;;;4980131;28;20363;-78
2023/05/04 13:52:33;;;;;;;10.85;3.17;;;;;;;;;;4977768;28;20331;-78
2023/05/04 13:54:59;;;;;;;6.55;2.50;;;;;;;;;;4973535;28;20030;-78
2023/05/04 13:57:28;;;;;;;5.85;2.78;;;;;;;;;;4977210;28;20078;-78
2023/05/04 13:59:54;;;;;;;4.47;2.00;;;;;;;;;;4987765;28;20513;-78
2023/05/04 14:02:21;;;;;;;7.03;2.10;;;;;;;;;;4982138;28;20034;-78
2023/05/04 14:04:49;;;;;;;3.22;1.85;;;;;;;;;;4962337;28;20043;-78
2023/05/04 14:07:15;;;;;;;8.57;2.40;;;;;;;;;;4980524;28;20074;-78
2023/05/04 14:09:41;;;;;;;7.93;2.25;;;;;;;;;;4975401;28;20096;-78
2023/05/04 14:12:07;;;;;;;9.95;2.65;;;;;;;;;;4974149;28;20122;-78
2023/05/04 14:14:33;;;;;;;10.45;2.45;;;;;;;;;;4987212;28;20487;-78
2023/05/04 14:16:59;;;;;;;7.15;1.80;;;;;;;;;;4977241;28;20439;-78
2023/05/04 14:19:26;;;;;;;9.63;2.50;;;;;;;;;;4976460;28;20134;-78
2023/05/04 14:21:52;;;;;;;4.72;2.20;;;;;;;;;;4978702;28;20035;-78
2023/05/04 14:24:18;;;;;;;3.40;1.80;;;;;;;;;;4969210;28;20531;-78
2023/05/04 14:26:44;;;;;;;6.50;2.15;;;;;;;;;;4959062;28;20038;-75
2023/05/04 14:29:10;;;;;;;6.63;3.60;;;;;;;;;;4970033;28;20074;-75
2023/05/04 14:31:36;;;;;;;4.82;2.25;;;;;;;;;;4986670;28;20039;-73
2023/05/04 14:34:02;;;;;;;7.43;2.42;;;;;;;;;;4963933;28;20061;-76